createdAt,value
2023-05-19T00:00:25.420Z,100898.97
2023-05-19T00:03:54.858Z,100884.56
2023-05-19T00:07:19.937Z,100888.19
2023-05-19T00:10:44.712Z,100884.34
2023-05-19T00:14:09.979Z,100875.09
2023-05-19T00:17:34.981Z,100869.66
2023-05-19T00:21:01.105Z,100873.78
2023-05-19T00:24:25.162Z,100873.88
2023-05-19T00:27:49.083Z,100878.78
2023-05-19T00:31:13.710Z,100874.00
2023-05-19T00:34:38.141Z,100879.09
2023-05-19T00:38:04.570Z,100879.88
2023-05-19T00:41:29.206Z,100879.62
2023-05-19T00:44:53.948Z,100880.41
2023-05-19T00:48:18.359Z,100873.53
2023-05-19T00:51:44.596Z,100867.78
2023-05-19T00:55:10.726Z,100877.44
2023-05-19T00:58:35.327Z,100861.53
2023-05-19T01:02:03.301Z,100866.66
2023-05-19T01:05:27.808Z,100860.06
2023-05-19T01:08:51.837Z,100864.53
2023-05-19T01:12:17.812Z,100850.78
2023-05-19T01:15:48.479Z,100849.53
2023-05-19T01:19:20.655Z,100852.84
2023-05-19T01:23:17.148Z,100855.94
2023-05-19T01:26:55.617Z,100859.28
2023-05-19T01:30:33.574Z,100868.31
2023-05-19T01:33:57.871Z,100868.34
2023-05-19T01:37:22.092Z,100867.19
2023-05-19T01:40:46.763Z,100860.47
2023-05-19T01:44:11.169Z,100879.03
2023-05-19T01:47:38.584Z,100865.03
2023-05-19T01:51:02.879Z,100868.94
2023-05-19T01:54:26.894Z,100861.69
2023-05-19T01:57:57.241Z,100861.97
2023-05-19T02:01:28.339Z,100855.53
2023-05-19T02:04:58.324Z,100860.53
2023-05-19T02:08:26.395Z,100861.84
2023-05-19T02:11:54.677Z,100865.97
2023-05-19T02:15:18.977Z,100875.88
2023-05-19T02:18:46.653Z,100875.00
2023-05-19T02:22:12.572Z,100873.03
2023-05-19T02:25:37.094Z,100873.81
2023-05-19T02:29:03.033Z,100865.47
2023-05-19T02:32:27.434Z,100865.78
2023-05-19T02:35:51.547Z,100853.53
2023-05-19T02:39:20.628Z,100857.25
2023-05-19T02:42:51.342Z,100854.53
2023-05-19T02:46:15.495Z,100855.88
2023-05-19T02:49:39.930Z,100850.47
2023-05-19T02:53:06.780Z,100848.66
2023-05-19T02:56:32.249Z,100862.50
2023-05-19T02:59:58.481Z,100859.00
2023-05-19T03:03:23.237Z,100861.84
2023-05-19T03:06:47.486Z,100862.09
2023-05-19T03:10:12.202Z,100863.63
2023-05-19T03:13:38.216Z,100873.41
2023-05-19T03:17:02.603Z,100875.41
2023-05-19T03:20:26.491Z,100869.31
2023-05-19T03:23:51.222Z,100880.87
2023-05-19T03:27:15.773Z,100879.25
2023-05-19T03:30:41.698Z,100880.19
2023-05-19T03:34:06.199Z,100886.16
2023-05-19T03:37:30.894Z,100888.97
2023-05-19T03:40:55.467Z,100888.59
2023-05-19T03:44:20.558Z,100882.19
2023-05-19T03:47:47.065Z,100875.66
2023-05-19T03:51:15.571Z,100874.78
2023-05-19T03:54:40.123Z,100873.56
2023-05-19T03:58:04.510Z,100882.28
2023-05-19T04:01:28.541Z,100872.38
2023-05-19T04:04:56.545Z,100872.50
2023-05-19T04:08:20.353Z,100882.03
2023-05-19T04:11:44.940Z,100890.63
2023-05-19T04:15:11.803Z,100890.44
2023-05-19T04:18:40.724Z,100883.66
2023-05-19T04:22:06.364Z,100893.09
2023-05-19T04:25:30.723Z,100900.34
2023-05-19T04:28:57.002Z,100910.50
2023-05-19T04:32:23.371Z,100901.84
2023-05-19T04:35:47.833Z,100906.91
2023-05-19T04:39:14.936Z,100905.78
2023-05-19T04:42:41.764Z,100917.50
2023-05-19T04:46:07.683Z,100915.84
2023-05-19T04:49:32.250Z,100922.78
2023-05-19T04:52:59.465Z,100919.66
2023-05-19T04:56:27.735Z,100921.09
2023-05-19T04:59:53.172Z,100918.41
2023-05-19T05:03:18.424Z,100912.81
2023-05-19T05:06:49.158Z,100908.56
2023-05-19T05:10:17.173Z,100919.09
2023-05-19T05:13:45.090Z,100912.88
2023-05-19T05:17:11.415Z,100918.00
2023-05-19T05:20:37.030Z,100917.44
2023-05-19T05:24:02.440Z,100917.44
2023-05-19T05:27:28.773Z,100918.09
2023-05-19T05:30:56.902Z,100923.59
2023-05-19T05:34:21.452Z,100921.47
2023-05-19T05:37:49.024Z,100923.81
2023-05-19T05:41:13.928Z,100926.41
2023-05-19T05:44:39.050Z,100926.25
2023-05-19T05:48:06.577Z,100922.78
2023-05-19T05:51:34.983Z,100925.28
2023-05-19T05:55:01.188Z,100929.88
2023-05-19T05:58:27.853Z,100931.56
2023-05-19T06:01:55.258Z,100942.00
2023-05-19T06:05:22.844Z,100937.97
2023-05-19T06:08:49.348Z,100937.25
2023-05-19T06:12:17.006Z,100945.97
2023-05-19T06:15:47.687Z,100947.12
2023-05-19T06:19:16.579Z,100947.06
2023-05-19T06:22:42.263Z,100957.53
2023-05-19T06:26:06.855Z,100962.06
2023-05-19T06:29:31.562Z,100966.78
2023-05-19T06:32:57.599Z,100975.81
2023-05-19T06:36:22.582Z,100975.59
2023-05-19T06:39:52.837Z,100973.59
2023-05-19T06:43:17.722Z,100971.31
2023-05-19T06:46:49.116Z,100969.13
2023-05-19T06:50:14.191Z,100971.09
2023-05-19T06:53:39.946Z,100979.00
2023-05-19T06:57:06.255Z,100969.75
2023-05-19T07:00:31.018Z,100967.91
2023-05-19T07:03:55.720Z,100975.28
2023-05-19T07:07:20.787Z,100962.87
2023-05-19T07:10:45.570Z,100960.09
2023-05-19T07:14:12.625Z,100953.44
2023-05-19T07:17:38.130Z,100960.34
2023-05-19T07:21:02.700Z,100971.88
2023-05-19T07:24:28.050Z,100964.06
2023-05-19T07:27:54.491Z,100966.66
2023-05-19T07:31:20.192Z,100961.94
2023-05-19T07:34:45.422Z,100971.09
2023-05-19T07:38:09.688Z,100971.63
2023-05-19T07:41:34.474Z,100965.47
2023-05-19T07:45:00.701Z,100967.62
2023-05-19T07:48:26.881Z,100970.47
2023-05-19T07:51:51.376Z,100961.34
2023-05-19T07:55:16.040Z,100966.53
2023-05-19T07:58:40.067Z,100966.38
2023-05-19T08:02:05.408Z,100957.59
2023-05-19T08:05:31.642Z,100962.31
2023-05-19T08:08:55.695Z,100955.16
2023-05-19T08:12:20.494Z,100963.31
2023-05-19T08:15:44.721Z,100960.88
2023-05-19T08:19:09.316Z,100960.75
2023-05-19T08:22:37.784Z,100954.50
2023-05-19T08:26:03.272Z,100960.66
2023-05-19T08:29:28.312Z,100952.34
2023-05-19T08:32:53.557Z,100946.06
2023-05-19T08:36:17.695Z,100947.34
2023-05-19T08:39:43.828Z,100943.44
2023-05-19T08:43:08.114Z,100944.09
2023-05-19T08:46:32.869Z,100944.91
2023-05-19T08:50:00.585Z,100939.13
2023-05-19T08:53:33.709Z,100939.03
2023-05-19T08:57:01.313Z,100939.47
2023-05-19T09:00:29.425Z,100940.81
2023-05-19T09:03:53.877Z,100937.66
2023-05-19T09:07:19.330Z,100930.31
2023-05-19T09:10:43.937Z,100923.69
2023-05-19T09:14:11.200Z,100920.41
2023-05-19T09:17:36.659Z,100924.75
2023-05-19T09:21:03.502Z,100916.50
2023-05-19T09:24:27.846Z,100926.88
2023-05-19T09:27:53.062Z,100914.84
2023-05-19T09:31:18.557Z,100922.44
2023-05-19T09:34:44.158Z,100926.91
2023-05-19T09:38:11.666Z,100925.63
2023-05-19T09:41:36.690Z,100916.84
2023-05-19T09:45:04.169Z,100920.12
2023-05-19T09:48:30.684Z,100919.84
2023-05-19T09:51:57.124Z,100914.59
2023-05-19T09:55:23.638Z,100902.31
2023-05-19T09:58:53.030Z,100898.81
2023-05-19T10:02:27.761Z,100895.41
2023-05-19T10:05:54.264Z,100889.91
2023-05-19T10:09:18.732Z,100879.88
2023-05-19T10:12:42.892Z,100880.56
2023-05-19T10:16:06.590Z,100883.56
2023-05-19T10:19:30.641Z,100881.97
2023-05-19T10:22:55.441Z,100874.25
2023-05-19T10:26:19.019Z,100875.50
2023-05-19T10:29:44.842Z,100875.66
2023-05-19T10:33:10.837Z,100865.03
2023-05-19T10:36:42.647Z,100859.75
2023-05-19T10:40:13.019Z,100855.06
2023-05-19T10:43:46.469Z,100849.50
2023-05-19T10:47:12.858Z,100848.06
2023-05-19T10:50:39.731Z,100847.13
2023-05-19T10:54:04.708Z,100835.56
2023-05-19T10:57:32.488Z,100844.84
2023-05-19T11:01:03.740Z,100831.88
2023-05-19T11:04:44.063Z,100836.19
2023-05-19T11:08:15.457Z,100829.72
2023-05-19T11:11:54.781Z,100825.47
2023-05-19T11:15:25.808Z,100825.31
2023-05-19T11:18:55.195Z,100825.34
2023-05-19T11:22:28.201Z,100828.69
2023-05-19T11:25:57.554Z,100815.31
2023-05-19T11:29:26.771Z,100818.41
2023-05-19T11:32:56.737Z,100817.63
2023-05-19T11:36:24.457Z,100818.47
2023-05-19T11:39:51.487Z,100811.53
2023-05-19T11:43:17.347Z,100806.72
2023-05-19T11:46:41.974Z,100802.19
2023-05-19T11:50:09.408Z,100806.41
2023-05-19T11:53:36.728Z,100799.19
2023-05-19T11:57:04.935Z,100796.78
2023-05-19T12:00:30.469Z,100807.44
2023-05-19T12:03:57.451Z,100802.63
2023-05-19T12:07:25.666Z,100797.28
2023-05-19T12:10:51.879Z,100797.34
2023-05-19T12:14:18.283Z,100790.38
2023-05-19T12:17:43.299Z,100791.53
2023-05-19T12:21:07.431Z,100783.09
2023-05-19T12:24:34.421Z,100792.16
2023-05-19T12:28:00.764Z,100774.59
2023-05-19T12:31:25.988Z,100777.97
2023-05-19T12:34:51.058Z,100775.66
2023-05-19T12:38:16.645Z,100776.69
2023-05-19T12:41:43.136Z,100777.97
2023-05-19T12:45:09.242Z,100767.00
2023-05-19T12:48:34.375Z,100771.59
2023-05-19T12:51:59.554Z,100757.94
2023-05-19T12:55:24.954Z,100751.44
2023-05-19T12:58:55.838Z,100752.78
2023-05-19T13:02:21.441Z,100747.97
2023-05-19T13:05:46.981Z,100736.78
2023-05-19T13:09:13.094Z,100729.06
2023-05-19T13:12:39.049Z,100741.47
2023-05-19T13:16:05.947Z,100727.59
2023-05-19T13:19:31.345Z,100728.44
2023-05-19T13:22:56.693Z,100724.81
2023-05-19T13:26:21.834Z,100722.00
2023-05-19T13:29:45.777Z,100718.09
2023-05-19T13:33:12.099Z,100715.63
2023-05-19T13:36:36.972Z,100718.13
2023-05-19T13:40:02.059Z,100711.59
2023-05-19T13:43:30.964Z,100710.12
2023-05-19T13:47:03.324Z,100697.47
2023-05-19T13:50:36.451Z,100708.78
2023-05-19T13:54:08.155Z,100705.06
2023-05-19T13:57:37.615Z,100700.25
2023-05-19T14:01:07.574Z,100703.44
2023-05-19T14:04:35.519Z,100695.31
2023-05-19T14:08:04.698Z,100692.00
2023-05-19T14:11:40.386Z,100687.38
2023-05-19T14:15:07.523Z,100688.37
2023-05-19T14:18:35.716Z,100692.06
2023-05-19T14:22:00.576Z,100684.94
2023-05-19T14:25:26.199Z,100690.22
2023-05-19T14:28:49.663Z,100687.03
2023-05-19T14:32:13.442Z,100681.47
2023-05-19T14:35:37.220Z,100688.16
2023-05-19T14:39:01.877Z,100689.88
2023-05-19T14:42:28.153Z,100692.16
2023-05-19T14:45:53.497Z,100683.09
2023-05-19T14:49:18.718Z,100682.28
2023-05-19T14:52:45.052Z,100681.63
2023-05-19T14:56:11.497Z,100689.41
2023-05-19T14:59:41.590Z,100682.59
2023-05-19T15:03:07.087Z,100689.06
2023-05-19T15:06:32.692Z,100690.84
2023-05-19T15:09:57.151Z,100685.97
2023-05-19T15:13:22.065Z,100682.88
2023-05-19T15:16:48.050Z,100685.47
2023-05-19T15:20:14.327Z,100678.75
2023-05-19T15:23:39.521Z,100675.25
2023-05-19T15:27:06.176Z,100676.50
2023-05-19T15:30:32.360Z,100680.66
2023-05-19T15:33:59.747Z,100684.66
2023-05-19T15:37:25.919Z,100671.44
2023-05-19T15:40:52.230Z,100675.81
2023-05-19T15:44:17.936Z,100680.31
2023-05-19T15:47:42.808Z,100679.22
2023-05-19T15:51:08.518Z,100683.34
2023-05-19T15:54:33.149Z,100683.69
2023-05-19T15:57:57.794Z,100679.62
2023-05-19T16:01:22.550Z,100673.06
2023-05-19T16:04:47.600Z,100668.31
2023-05-19T16:08:13.604Z,100675.13
2023-05-19T16:11:38.542Z,100681.41
2023-05-19T16:15:03.242Z,100685.56
2023-05-19T16:18:29.670Z,100679.47
2023-05-19T16:21:54.434Z,100673.12
2023-05-19T16:25:21.117Z,100669.56
2023-05-19T16:28:45.273Z,100680.84
2023-05-19T16:32:10.022Z,100677.84
2023-05-19T16:35:34.442Z,100676.31
2023-05-19T16:38:59.363Z,100678.00
2023-05-19T16:42:24.927Z,100681.84
2023-05-19T16:45:49.628Z,100675.06
2023-05-19T16:49:14.143Z,100669.78
2023-05-19T16:52:38.721Z,100667.53
2023-05-19T16:56:02.771Z,100676.94
2023-05-19T16:59:28.837Z,100675.72
2023-05-19T17:02:53.664Z,100662.03
2023-05-19T17:06:18.477Z,100671.47
2023-05-19T17:09:42.841Z,100675.75
2023-05-19T17:13:07.436Z,100676.72
2023-05-19T17:16:33.568Z,100681.56
2023-05-19T17:19:58.044Z,100664.78
2023-05-19T17:23:21.985Z,100663.72
2023-05-19T17:26:46.125Z,100672.72
2023-05-19T17:30:10.924Z,100675.38
2023-05-19T17:33:37.190Z,100677.44
2023-05-19T17:37:01.014Z,100683.59
2023-05-19T17:40:25.635Z,100683.88
2023-05-19T17:43:49.823Z,100678.72
2023-05-19T17:47:14.609Z,100682.09
2023-05-19T17:50:40.078Z,100674.63
2023-05-19T17:54:05.647Z,100683.38
2023-05-19T17:57:30.396Z,100676.59
2023-05-19T18:00:55.413Z,100682.78
2023-05-19T18:04:20.541Z,100678.19
2023-05-19T18:07:46.588Z,100675.56
2023-05-19T18:11:13.915Z,100670.16
2023-05-19T18:14:37.961Z,100673.41
2023-05-19T18:18:03.532Z,100676.41
2023-05-19T18:21:27.918Z,100674.84
2023-05-19T18:24:54.442Z,100680.25
2023-05-19T18:28:18.452Z,100682.28
2023-05-19T18:31:43.811Z,100689.06
2023-05-19T18:35:09.421Z,100680.53
2023-05-19T18:38:34.317Z,100684.97
2023-05-19T18:42:00.145Z,100680.94
2023-05-19T18:45:24.735Z,100685.94
2023-05-19T18:48:50.297Z,100690.56
2023-05-19T18:52:15.301Z,100696.75
2023-05-19T18:55:39.691Z,100700.31
2023-05-19T18:59:06.071Z,100708.37
2023-05-19T19:02:30.203Z,100711.34
2023-05-19T19:05:58.160Z,100713.66
2023-05-19T19:09:22.688Z,100713.53
2023-05-19T19:12:47.061Z,100716.66
2023-05-19T19:16:12.533Z,100713.75
2023-05-19T19:19:37.543Z,100713.22
2023-05-19T19:23:02.281Z,100720.97
2023-05-19T19:26:27.341Z,100719.28
2023-05-19T19:29:51.571Z,100727.75
2023-05-19T19:33:17.706Z,100727.78
2023-05-19T19:36:41.593Z,100731.38
2023-05-19T19:40:06.441Z,100725.34
2023-05-19T19:43:33.946Z,100730.03
2023-05-19T19:46:58.678Z,100727.59
2023-05-19T19:50:24.167Z,100740.44
2023-05-19T19:53:48.994Z,100723.62
2023-05-19T19:57:16.336Z,100732.41
2023-05-19T20:00:41.044Z,100739.00
2023-05-19T20:04:17.411Z,100731.97
2023-05-19T20:07:43.274Z,100736.41
2023-05-19T20:11:07.811Z,100730.38
2023-05-19T20:14:31.845Z,100736.00
2023-05-19T20:17:56.632Z,100734.84
2023-05-19T20:21:24.044Z,100738.00
2023-05-19T20:24:50.333Z,100730.62
2023-05-19T20:28:23.195Z,100727.78
2023-05-19T20:32:12.880Z,100727.88
2023-05-19T20:35:37.241Z,100728.94
2023-05-19T20:39:02.560Z,100725.34
2023-05-19T20:42:28.426Z,100732.69
2023-05-19T20:45:54.077Z,100737.25
2023-05-19T20:49:18.243Z,100728.78
2023-05-19T20:52:43.652Z,100724.75
2023-05-19T20:56:11.210Z,100730.25
2023-05-19T20:59:38.563Z,100730.25
2023-05-19T21:03:03.222Z,100734.53
2023-05-19T21:06:28.834Z,100731.38
2023-05-19T21:09:54.924Z,100731.53
2023-05-19T21:13:20.317Z,100734.25
2023-05-19T21:16:46.811Z,100731.13
2023-05-19T21:20:13.330Z,100735.37
2023-05-19T21:23:37.980Z,100729.69
2023-05-19T21:27:02.734Z,100722.19
2023-05-19T21:30:27.694Z,100725.50
2023-05-19T21:33:54.885Z,100724.19
2023-05-19T21:37:21.021Z,100714.63
2023-05-19T21:40:48.587Z,100718.25
2023-05-19T21:44:13.634Z,100698.41
2023-05-19T21:47:39.283Z,100703.16
2023-05-19T21:51:05.925Z,100708.78
2023-05-19T21:54:31.006Z,100698.28
2023-05-19T21:57:56.072Z,100699.59
2023-05-19T22:01:20.850Z,100702.69
2023-05-19T22:04:46.656Z,100698.84
2023-05-19T22:08:13.345Z,100703.91
2023-05-19T22:11:38.905Z,100705.84
2023-05-19T22:15:04.383Z,100707.25
2023-05-19T22:18:30.061Z,100717.78
2023-05-19T22:22:01.888Z,100717.22
2023-05-19T22:25:36.506Z,100716.84
2023-05-19T22:29:01.740Z,100720.06
2023-05-19T22:32:26.711Z,100717.06
2023-05-19T22:35:51.623Z,100708.25
2023-05-19T22:39:16.056Z,100701.53
2023-05-19T22:42:41.534Z,100698.37
2023-05-19T22:46:07.386Z,100695.06
2023-05-19T22:49:32.467Z,100693.12
2023-05-19T22:52:57.765Z,100687.16
2023-05-19T22:56:23.253Z,100675.88
2023-05-19T22:59:49.738Z,100676.69
2023-05-19T23:03:14.145Z,100675.06
2023-05-19T23:06:39.085Z,100673.91
2023-05-19T23:10:04.045Z,100672.97
2023-05-19T23:13:28.842Z,100667.09
2023-05-19T23:16:54.733Z,100665.50
2023-05-19T23:20:19.805Z,100665.03
2023-05-19T23:23:44.270Z,100655.34
2023-05-19T23:27:09.618Z,100661.50
2023-05-19T23:30:33.490Z,100659.56
2023-05-19T23:33:59.699Z,100658.56
2023-05-19T23:37:24.236Z,100654.91
2023-05-19T23:40:49.308Z,100672.53
2023-05-19T23:44:13.803Z,100669.84
2023-05-19T23:47:39.038Z,100667.63
2023-05-19T23:51:04.844Z,100659.62
2023-05-19T23:54:30.857Z,100653.69
2023-05-19T23:57:54.766Z,100656.63
